Time;durP1;ratioP1;P1;durP2;ratioP2;P2;SDS_P1;SDS_P2;PMS_P1;PMS_P2;Temp;Humidity;BMP_temperature;BMP_pressure;BME280_temperature;BME280_humidity;BME280_pressure;Samples;Min_cycle;Max_cycle;Signal;HPM_P1;HPM_P2
2021/05/29 00:01:17;;;;;;;;;;;;;;;20.89;36.16;100338.87;5345262;26;33138;-87
2021/05/29 00:03:46;;;;;;;;;;;;;;;20.52;36.84;100342.88;5326703;26;32761;-87
2021/05/29 00:06:14;;;;;;;;;;;;;;;21.58;35.00;100347.59;5344648;26;33140;-87
2021/05/29 00:08:41;;;;;;;;;;;;;;;21.74;34.63;100344.75;5326640;26;33995;-88
2021/05/29 00:11:09;;;;;;;;;;;;;;;21.38;35.17;100340.09;5327207;26;33079;-88
2021/05/29 00:13:37;;;;;;;;;;;;;;;21.96;34.23;100336.16;5327003;26;33151;-88
2021/05/29 00:16:06;;;;;;;;;;;;;;;21.83;34.36;100333.53;5327259;26;32894;-88
2021/05/29 00:18:34;;;;;;;;;;;;;;;22.23;33.64;100335.22;5327432;26;33120;-87
2021/05/29 00:21:02;;;;;;;;;;;;;;;22.03;34.03;100328.66;5345500;26;32935;-88
2021/05/29 00:23:29;;;;;;;;;;;;;;;22.02;34.09;100329.59;5345375;26;32068;-88
2021/05/29 00:25:57;;;;;;;;;;;;;;;21.64;34.86;100325.13;5327353;26;32762;-88
2021/05/29 00:28:24;;;;;;;;;;;;;;;21.88;34.36;100327.88;5327412;26;33116;-88
2021/05/29 00:30:51;;;;;;;;;;;;;;;20.60;36.92;100317.75;5327190;26;33278;-88
2021/05/29 00:33:19;;;;;;;;;;;;;;;20.95;36.07;100317.28;5345500;26;32260;-88
2021/05/29 00:35:47;;;;;;;;;;;;;;;21.11;35.75;100318.00;5345366;26;34292;-88
2021/05/29 00:38:14;;;;;;;;;;;;;;;21.52;35.14;100325.00;5327252;26;34059;-88
2021/05/29 00:40:42;;;;;;;;;;;;;;;21.46;35.28;100311.28;5345352;26;34312;-87
2021/05/29 00:43:09;;;;;;;;;;;;;;;22.04;34.16;100317.06;5326947;26;32576;-87
2021/05/29 00:45:37;;;;;;;;;;;;;;;22.19;33.88;100309.84;5345653;26;32560;-88
2021/05/29 00:48:05;;;;;;;;;;;;;;;21.29;35.58;100318.56;5345297;26;33270;-88
2021/05/29 00:50:33;;;;;;;;;;;;;;;21.92;34.32;100318.75;5327158;26;33130;-88
2021/05/29 00:53:00;;;;;;;;;;;;;;;22.04;34.15;100306.44;5344715;26;32248;-88
2021/05/29 00:55:29;;;;;;;;;;;;;;;21.97;34.37;100313.16;5345787;26;33617;-88
2021/05/29 00:57:56;;;;;;;;;;;;;;;22.34;33.63;100316.72;5327102;26;33013;-87
2021/05/29 01:00:24;;;;;;;;;;;;;;;22.19;33.92;100304.53;5345684;26;32615;-89
2021/05/29 01:02:51;;;;;;;;;;;;;;;21.90;34.41;100310.06;5327501;26;32152;-88
2021/05/29 01:05:20;;;;;;;;;;;;;;;22.65;33.09;100308.37;5345718;26;35025;-88
2021/05/29 01:07:48;;;;;;;;;;;;;;;21.74;34.63;100310.28;5347706;26;34219;-87
2021/05/29 01:10:17;;;;;;;;;;;;;;;21.98;34.16;100318.34;5351664;26;32822;-88
2021/05/29 01:12:45;;;;;;;;;;;;;;;21.97;34.34;100315.81;5370180;26;33271;-88
2021/05/29 01:15:15;;;;;;;;;;;;;;;21.65;34.81;100309.09;5365856;26;33073;-87
2021/05/29 01:17:43;;;;;;;;;;;;;;;21.88;34.38;100308.47;5364588;26;32924;-88
2021/05/29 01:20:11;;;;;;;;;;;;;;;21.64;34.62;100299.44;5346374;26;33045;-88
2021/05/29 01:22:38;;;;;;;;;;;;;;;22.16;33.60;100291.47;5346554;26;32299;-88
2021/05/29 01:25:29;;;;;;;;;;;;;;;22.41;32.99;100293.25;5365400;26;35261;-88
2021/05/29 01:28:07;;;;;;;;;;;;;;;22.22;33.29;100298.13;5345412;26;33070;-88
2021/05/29 01:30:58;;;;;;;;;;;;;;;21.99;33.65;100308.56;5345354;26;32913;-88
2021/05/29 01:33:27;;;;;;;;;;;;;;;22.47;32.69;100302.56;5345569;26;32931;-88
2021/05/29 01:35:59;;;;;;;;;;;;;;;22.88;32.02;100295.22;5345285;26;32817;-88
2021/05/29 01:38:26;;;;;;;;;;;;;;;22.75;32.28;100298.78;5363638;26;33507;-88
2021/05/29 01:40:59;;;;;;;;;;;;;;;22.89;32.04;100303.06;5363639;26;34208;-88
2021/05/29 01:43:26;;;;;;;;;;;;;;;22.60;32.50;100298.09;5345185;26;32367;-88
2021/05/29 01:45:54;;;;;;;;;;;;;;;22.14;33.38;100306.66;5345055;26;34806;-88
2021/05/29 01:48:22;;;;;;;;;;;;;;;22.17;33.48;100311.75;5363592;26;33078;-88
2021/05/29 01:50:53;;;;;;;;;;;;;;;22.17;33.42;100301.97;5327873;26;33766;-87
2021/05/29 01:53:23;;;;;;;;;;;;;;;22.75;32.39;100297.91;5326934;26;32181;-88
2021/05/29 01:55:50;;;;;;;;;;;;;;;22.51;32.90;100306.72;5345512;26;32934;-87
2021/05/29 01:58:18;;;;;;;;;;;;;;;22.56;32.81;100293.94;5345625;26;34157;-88
2021/05/29 02:00:46;;;;;;;;;;;;;;;22.78;32.43;100298.53;5345400;26;33277;-88
2021/05/29 02:03:14;;;;;;;;;;;;;;;22.71;32.03;100297.31;5345475;26;33185;-88
2021/05/29 02:05:42;;;;;;;;;;;;;;;22.78;31.67;100287.09;5344934;26;34567;-88
2021/05/29 02:08:10;;;;;;;;;;;;;;;22.68;31.82;100290.41;5363638;26;34029;-87
2021/05/29 02:10:39;;;;;;;;;;;;;;;22.60;32.00;100286.62;5363564;26;33811;-88
2021/05/29 02:13:07;;;;;;;;;;;;;;;22.44;32.20;100284.22;5345283;26;32107;-87
2021/05/29 02:15:35;;;;;;;;;;;;;;;23.06;31.22;100283.22;5344952;26;33023;-89
2021/05/29 02:18:04;;;;;;;;;;;;;;;22.76;31.71;100281.03;5344990;26;33930;-89
2021/05/29 02:20:46;;;;;;;;;;;;;;;23.08;31.11;100285.75;5363697;26;33611;-88
2021/05/29 02:23:15;;;;;;;;;;;;;;;22.75;31.68;100279.31;5344990;26;32110;-87
2021/05/29 02:25:43;;;;;;;;;;;;;;;23.08;31.07;100275.13;5363921;26;34024;-88
2021/05/29 02:28:10;;;;;;;;;;;;;;;22.94;31.31;100277.00;5363439;26;34197;-88
2021/05/29 02:30:38;;;;;;;;;;;;;;;22.71;31.63;100272.53;5363438;26;35507;-88
2021/05/29 02:33:06;;;;;;;;;;;;;;;22.95;31.21;100273.41;5363420;26;32319;-87
2021/05/29 02:35:34;;;;;;;;;;;;;;;22.56;31.85;100280.66;5363520;26;32922;-88
2021/05/29 02:38:03;;;;;;;;;;;;;;;22.96;31.10;100277.75;5363570;26;33852;-88
2021/05/29 02:40:31;;;;;;;;;;;;;;;23.07;30.74;100276.09;5326957;26;32732;-88
2021/05/29 02:42:58;;;;;;;;;;;;;;;22.87;30.90;100277.56;5345242;26;32156;-88
2021/05/29 02:45:26;;;;;;;;;;;;;;;22.85;30.86;100270.59;5363864;26;34160;-87
2021/05/29 02:47:54;;;;;;;;;;;;;;;23.15;30.40;100282.56;5363432;26;33783;-87
2021/05/29 02:50:22;;;;;;;;;;;;;;;22.67;31.66;100271.94;5326613;26;34349;-88
2021/05/29 02:52:49;;;;;;;;;;;;;;;21.75;34.08;100274.00;5344843;26;32185;-87
2021/05/29 02:55:23;;;;;;;;;;;;;;;21.83;34.28;100264.56;5326650;26;32765;-88
2021/05/29 02:57:51;;;;;;;;;;;;;;;21.92;34.25;100268.38;5345791;26;34232;-88
2021/05/29 03:00:20;;;;;;;;;;;;;;;22.49;33.29;100269.66;5363332;26;33722;-88
2021/05/29 03:02:48;;;;;;;;;;;;;;;21.81;34.66;100263.81;5363407;26;33030;-88
2021/05/29 03:05:17;;;;;;;;;;;;;;;21.16;35.84;100268.19;5345132;26;35019;-87
2021/05/29 03:07:46;;;;;;;;;;;;;;;22.01;34.32;100269.53;5345181;26;34086;-87
2021/05/29 03:10:15;;;;;;;;;;;;;;;22.22;33.79;100267.16;5326814;26;32804;-87
2021/05/29 03:12:42;;;;;;;;;;;;;;;22.43;33.28;100279.88;5326922;26;32153;-88
2021/05/29 03:15:14;;;;;;;;;;;;;;;22.09;34.16;100283.09;5327289;26;33827;-87
2021/05/29 03:17:42;;;;;;;;;;;;;;;22.75;32.83;100277.53;5345471;26;33187;-88
2021/05/29 03:20:12;;;;;;;;;;;;;;;22.67;33.02;100266.63;5345320;26;32968;-89
2021/05/29 03:22:40;;;;;;;;;;;;;;;22.87;32.54;100267.81;5366221;26;33435;-88
2021/05/29 03:25:09;;;;;;;;;;;;;;;22.61;32.99;100267.91;5370090;26;33366;-88
2021/05/29 03:27:37;;;;;;;;;;;;;;;22.40;33.35;100270.31;5333368;26;33059;-88
2021/05/29 03:30:05;;;;;;;;;;;;;;;23.12;32.17;100276.59;5346977;26;33823;-88
2021/05/29 03:32:33;;;;;;;;;;;;;;;22.93;32.62;100270.00;5345250;26;32189;-87
2021/05/29 03:35:01;;;;;;;;;;;;;;;22.65;33.11;100273.84;5345017;26;34163;-88
2021/05/29 03:37:29;;;;;;;;;;;;;;;22.63;33.29;100268.66;5326740;26;33109;-87
2021/05/29 03:39:56;;;;;;;;;;;;;;;21.81;34.97;100278.88;5344815;26;32888;-87
2021/05/29 03:42:24;;;;;;;;;;;;;;;21.61;35.43;100274.97;5307858;26;32028;-88
2021/05/29 03:44:53;;;;;;;;;;;;;;;22.09;34.54;100283.09;5363136;26;34895;-88
2021/05/29 03:47:20;;;;;;;;;;;;;;;21.44;35.64;100279.56;5344840;26;32990;-88
2021/05/29 03:49:48;;;;;;;;;;;;;;;21.88;34.95;100280.16;5344926;26;33881;-88
2021/05/29 03:52:16;;;;;;;;;;;;;;;22.20;34.28;100277.03;5344635;26;33025;-87
2021/05/29 03:54:44;;;;;;;;;;;;;;;21.19;36.31;100280.38;5326261;26;33901;-88
2021/05/29 03:57:11;;;;;;;;;;;;;;;21.88;34.95;100284.63;5344614;26;34187;-88
2021/05/29 03:59:39;;;;;;;;;;;;;;;21.67;35.31;100282.47;5363289;26;34300;-88
2021/05/29 04:02:06;;;;;;;;;;;;;;;21.79;35.21;100288.75;5363213;26;32490;-88
2021/05/29 04:04:34;;;;;;;;;;;;;;;22.33;34.16;100291.13;5363149;26;32890;-87
2021/05/29 04:07:02;;;;;;;;;;;;;;;22.05;34.61;100286.09;5344583;26;32955;-88
2021/05/29 04:09:29;;;;;;;;;;;;;;;21.90;34.88;100282.69;5326065;26;33233;-87
2021/05/29 04:11:57;;;;;;;;;;;;;;;21.78;35.07;100285.25;5344471;26;32007;-89
2021/05/29 04:14:25;;;;;;;;;;;;;;;21.75;35.15;100298.75;5344717;26;34812;-88
2021/05/29 04:16:53;;;;;;;;;;;;;;;22.02;34.77;100298.59;5326170;26;32965;-88
2021/05/29 04:19:21;;;;;;;;;;;;;;;22.22;34.36;100304.31;5344602;26;34212;-87
2021/05/29 04:21:49;;;;;;;;;;;;;;;22.27;34.02;100296.00;5344562;26;34038;-88
2021/05/29 04:24:16;;;;;;;;;;;;;;;22.14;34.11;100296.06;5326356;26;33101;-87
2021/05/29 04:26:44;;;;;;;;;;;;;;;20.63;37.03;100297.19;5362908;26;34898;-87
2021/05/29 04:29:13;;;;;;;;;;;;;;;19.87;38.56;100301.06;5344420;26;33999;-89
2021/05/29 04:31:40;;;;;;;;;;;;;;;20.33;37.74;100303.50;5326316;26;32041;-88
2021/05/29 04:34:08;;;;;;;;;;;;;;;20.82;36.75;100310.16;5344512;26;34034;-88
2021/05/29 04:36:36;;;;;;;;;;;;;;;21.66;35.20;100310.81;5344789;26;33101;-88
2021/05/29 04:39:04;;;;;;;;;;;;;;;21.55;35.42;100304.53;5326061;26;33001;-88
2021/05/29 04:41:32;;;;;;;;;;;;;;;21.73;35.03;100308.59;5362781;26;33153;-88
2021/05/29 04:44:00;;;;;;;;;;;;;;;21.65;35.13;100308.28;5344450;26;33076;-88
2021/05/29 04:46:27;;;;;;;;;;;;;;;22.23;34.09;100311.31;5325950;26;32918;-87
2021/05/29 04:48:57;;;;;;;;;;;;;;;21.87;34.58;100317.38;5344843;26;32947;-88
2021/05/29 04:51:25;;;;;;;;;;;;;;;22.15;34.34;100311.00;5326115;26;33200;-88
2021/05/29 04:53:52;;;;;;;;;;;;;;;22.40;33.84;100311.94;5344307;26;34461;-87
2021/05/29 04:56:20;;;;;;;;;;;;;;;22.42;33.84;100302.09;5326801;26;34381;-88
2021/05/29 04:58:47;;;;;;;;;;;;;;;22.33;34.11;100291.13;5345554;26;33034;-87
2021/05/29 05:01:14;;;;;;;;;;;;;;;22.17;34.29;100299.31;5345625;26;33077;-89
2021/05/29 05:03:42;;;;;;;;;;;;;;;22.42;33.68;100296.78;5327382;26;32976;-87
2021/05/29 05:06:11;;;;;;;;;;;;;;;22.02;34.54;100293.28;5327006;26;33349;-88
2021/05/29 05:08:38;;;;;;;;;;;;;;;22.21;34.34;100309.75;5345355;26;34010;-87
2021/05/29 05:11:07;;;;;;;;;;;;;;;22.34;34.19;100300.78;5327614;26;31713;-88
2021/05/29 05:13:34;;;;;;;;;;;;;;;22.80;33.43;100301.09;5345181;26;33986;-88
2021/05/29 05:16:02;;;;;;;;;;;;;;;21.81;35.42;100302.75;5364283;26;35003;-88
2021/05/29 05:18:30;;;;;;;;;;;;;;;22.15;34.77;100305.69;5327247;26;33047;-87
2021/05/29 05:20:58;;;;;;;;;;;;;;;22.14;34.91;100298.72;5327081;26;32410;-88
2021/05/29 05:23:25;;;;;;;;;;;;;;;22.55;34.07;100294.94;5345243;26;33798;-87
2021/05/29 05:25:53;;;;;;;;;;;;;;;21.74;35.88;100302.34;5345872;26;34081;-88
2021/05/29 05:28:25;;;;;;;;;;;;;;;22.13;34.99;100302.31;5327645;26;34272;-89
2021/05/29 05:30:53;;;;;;;;;;;;;;;22.62;34.11;100296.16;5347730;26;32075;-88
2021/05/29 05:33:21;;;;;;;;;;;;;;;22.34;34.61;100298.13;5370479;26;34410;-88
2021/05/29 05:35:49;;;;;;;;;;;;;;;22.39;34.79;100302.28;5331248;26;33002;-88
2021/05/29 05:38:17;;;;;;;;;;;;;;;22.15;35.06;100303.03;5347358;26;33288;-89
2021/05/29 05:40:44;;;;;;;;;;;;;;;22.60;34.17;100300.75;5345858;26;32853;-87
2021/05/29 05:43:12;;;;;;;;;;;;;;;22.04;35.57;100303.78;5363948;26;33629;-88
2021/05/29 05:45:40;;;;;;;;;;;;;;;21.54;36.61;100306.34;5327021;26;33220;-88
2021/05/29 05:48:07;;;;;;;;;;;;;;;22.49;34.63;100308.63;5326966;26;33816;-88
2021/05/29 05:50:34;;;;;;;;;;;;;;;22.16;35.10;100304.75;5344822;26;32394;-88
2021/05/29 05:53:04;;;;;;;;;;;;;;;22.52;34.67;100308.41;5345291;26;34214;-88
2021/05/29 05:55:31;;;;;;;;;;;;;;;22.57;34.66;100302.78;5326667;26;33027;-87
2021/05/29 05:57:59;;;;;;;;;;;;;;;22.80;34.21;100303.75;5345291;26;32931;-88
2021/05/29 06:00:27;;;;;;;;;;;;;;;23.22;33.45;100309.53;5345376;26;33285;-87
2021/05/29 06:02:54;;;;;;;;;;;;;;;23.12;33.68;100304.03;5326627;26;32959;-88
2021/05/29 06:05:22;;;;;;;;;;;;;;;23.35;33.17;100312.94;5326347;26;33677;-88
2021/05/29 06:07:49;;;;;;;;;;;;;;;23.30;33.23;100311.63;5344968;26;32911;-88
2021/05/29 06:10:19;;;;;;;;;;;;;;;23.31;33.38;100310.66;5328842;26;32718;-88
2021/05/29 06:12:50;;;;;;;;;;;;;;;23.66;32.39;100313.25;5348374;26;32889;-87
2021/05/29 06:20:32;;;;;;;;;;;;;;;23.96;31.90;100322.53;5345425;26;32218;-89
2021/05/29 06:22:59;;;;;;;;;;;;;;;24.22;31.09;100319.63;5326876;26;33571;-89
2021/05/29 06:25:27;;;;;;;;;;;;;;;24.23;31.05;100326.66;5363429;26;33920;-88
2021/05/29 06:27:54;;;;;;;;;;;;;;;24.66;30.54;100323.25;5326766;26;34168;-87
2021/05/29 06:30:22;;;;;;;;;;;;;;;24.67;30.35;100324.94;5345045;26;32178;-88
2021/05/29 06:32:50;;;;;;;;;;;;;;;24.97;29.70;100320.75;5363896;26;33607;-88
2021/05/29 06:35:18;;;;;;;;;;;;;;;25.11;29.33;100318.75;5345259;26;34211;-87
2021/05/29 06:37:45;;;;;;;;;;;;;;;25.33;28.91;100318.66;5344826;26;34722;-88
2021/05/29 06:40:13;;;;;;;;;;;;;;;25.61;28.82;100329.69;5326615;26;32292;-88
2021/05/29 06:42:41;;;;;;;;;;;;;;;25.33;29.01;100329.31;5308546;26;34228;-88
2021/05/29 06:45:10;;;;;;;;;;;;;;;24.88;29.63;100334.81;5363432;26;32796;-88
2021/05/29 06:47:38;;;;;;;;;;;;;;;24.86;29.61;100327.94;5345165;26;33023;-88
2021/05/29 06:50:06;;;;;;;;;;;;;;;24.81;29.88;100338.94;5363684;26;32490;-89
2021/05/29 06:52:37;;;;;;;;;;;;;;;25.01;29.47;100332.84;5345045;26;33763;-87
2021/05/29 07:00:38;;;;;;;;;;;;;;;25.57;29.18;100343.41;5363535;26;32109;-89
2021/05/29 07:03:05;;;;;;;;;;;;;;;25.49;29.45;100339.56;5326640;26;33327;-88
2021/05/29 07:05:35;;;;;;;;;;;;;;;24.20;31.54;100342.88;5363620;26;33369;-88
2021/05/29 07:08:03;;;;;;;;;;;;;;;25.44;29.40;100343.59;5345213;26;34953;-89
2021/05/29 07:10:30;;;;;;;;;;;;;;;24.93;29.89;100335.28;5345118;26;32510;-88
2021/05/29 07:12:58;;;;;;;;;;;;;;;25.16;29.33;100341.38;5345136;26;33341;-89
2021/05/29 07:15:31;;;;;;;;;;;;;;;24.71;30.03;100336.19;5326631;26;33613;-89
2021/05/29 07:18:10;;;;;;;;;;;;;;;25.36;29.28;100330.06;5346319;26;33914;-88
2021/05/29 07:20:38;;;;;;;;;;;;;;;24.31;31.09;100334.88;5363810;26;33696;-88
2021/05/29 07:23:06;;;;;;;;;;;;;;;23.99;31.46;100335.59;5344825;26;33159;-88
2021/05/29 07:25:33;;;;;;;;;;;;;;;25.20;29.48;100339.31;5326690;26;33135;-88
2021/05/29 07:28:02;;;;;;;;;;;;;;;24.83;30.14;100340.50;5363219;26;34090;-89
2021/05/29 07:30:29;;;;;;;;;;;;;;;25.14;29.71;100338.00;5326570;26;33283;-88
2021/05/29 07:32:57;;;;;;;;;;;;;;;25.70;28.99;100336.06;5344928;26;33010;-88
2021/05/29 07:35:27;;;;;;;;;;;;;;;25.07;29.78;100333.31;5344874;26;33087;-89
2021/05/29 07:37:55;;;;;;;;;;;;;;;25.46;29.08;100341.63;5344764;26;33445;-89
2021/05/29 07:40:22;;;;;;;;;;;;;;;24.92;29.64;100338.94;5363726;26;33451;-88
2021/05/29 07:42:50;;;;;;;;;;;;;;;24.87;29.96;100332.28;5364164;26;33644;-88
2021/05/29 07:45:18;;;;;;;;;;;;;;;25.61;29.09;100344.84;5345535;26;35468;-88
2021/05/29 07:47:45;;;;;;;;;;;;;;;24.44;31.11;100340.09;5345630;26;33275;-88
2021/05/29 07:50:13;;;;;;;;;;;;;;;25.20;30.10;100335.81;5369721;26;32463;-88
2021/05/29 07:52:42;;;;;;;;;;;;;;;24.67;31.13;100332.09;5370513;26;33610;-88
2021/05/29 07:55:11;;;;;;;;;;;;;;;25.67;29.68;100334.50;5348642;26;34259;-88
2021/05/29 07:57:39;;;;;;;;;;;;;;;24.27;31.84;100328.09;5327773;26;33955;-88
2021/05/29 08:00:10;;;;;;;;;;;;;;;25.23;30.18;100324.87;5364202;26;33411;-88
2021/05/29 08:02:38;;;;;;;;;;;;;;;24.48;31.57;100330.03;5344690;26;33036;-89
2021/05/29 08:05:06;;;;;;;;;;;;;;;25.43;29.50;100317.91;5345245;26;35034;-88
2021/05/29 08:07:34;;;;;;;;;;;;;;;25.59;29.30;100312.94;5326877;26;33675;-88
2021/05/29 08:10:02;;;;;;;;;;;;;;;25.77;28.75;100313.19;5326735;26;31830;-88
2021/05/29 08:12:30;;;;;;;;;;;;;;;26.04;28.56;100317.16;5326590;26;33148;-88
2021/05/29 08:14:57;;;;;;;;;;;;;;;25.44;29.71;100320.44;5344519;26;34407;-88
2021/05/29 08:17:25;;;;;;;;;;;;;;;25.80;29.44;100322.78;5344651;26;34870;-88
2021/05/29 08:19:53;;;;;;;;;;;;;;;25.84;29.37;100318.84;5344570;26;32632;-89
2021/05/29 08:22:20;;;;;;;;;;;;;;;25.96;28.94;100323.12;5363177;26;34819;-88
2021/05/29 08:24:48;;;;;;;;;;;;;;;26.31;28.13;100321.91;5344584;26;33791;-89
2021/05/29 08:27:15;;;;;;;;;;;;;;;26.74;27.06;100322.59;5325872;26;34282;-88
2021/05/29 08:29:43;;;;;;;;;;;;;;;26.04;28.59;100319.81;5345361;26;32168;-89
2021/05/29 08:32:11;;;;;;;;;;;;;;;25.80;28.27;100318.25;5327367;26;33679;-88
2021/05/29 08:34:39;;;;;;;;;;;;;;;25.61;28.10;100323.50;5364120;26;33648;-88
2021/05/29 08:37:07;;;;;;;;;;;;;;;26.52;26.79;100323.66;5345577;26;33941;-90
2021/05/29 08:39:35;;;;;;;;;;;;;;;25.66;27.86;100318.59;5345584;26;31831;-87
2021/05/29 08:42:04;;;;;;;;;;;;;;;26.32;27.03;100322.75;5327015;26;33052;-88
2021/05/29 08:44:32;;;;;;;;;;;;;;;26.67;26.46;100324.09;5345819;26;33144;-88
2021/05/29 08:47:02;;;;;;;;;;;;;;;27.00;26.05;100317.56;5364109;26;33906;-88
2021/05/29 08:49:29;;;;;;;;;;;;;;;26.87;26.31;100316.13;5345820;26;31989;-88
2021/05/29 08:52:00;;;;;;;;;;;;;;;26.93;26.32;100318.28;5363879;26;33752;-89
2021/05/29 08:54:28;;;;;;;;;;;;;;;26.69;26.39;100327.47;5345808;26;33877;-89
2021/05/29 08:56:56;;;;;;;;;;;;;;;26.59;26.97;100313.25;5345118;26;32945;-88
2021/05/29 08:59:23;;;;;;;;;;;;;;;27.35;25.99;100315.31;5345208;26;32123;-88
2021/05/29 09:01:54;;;;;;;;;;;;;;;27.03;25.87;100315.59;5345665;26;34509;-88
2021/05/29 09:04:21;;;;;;;;;;;;;;;27.02;25.88;100305.88;5345348;26;33016;-88
2021/05/29 09:06:49;;;;;;;;;;;;;;;27.64;25.15;100301.03;5345418;26;33008;-89
2021/05/29 09:09:18;;;;;;;;;;;;;;;27.31;25.26;100311.25;5363810;26;32357;-89
2021/05/29 09:11:53;;;;;;;;;;;;;;;27.69;24.96;100304.13;5345486;26;34051;-88
2021/05/29 09:14:22;;;;;;;;;;;;;;;27.27;25.27;100308.00;5363968;26;34897;-88
2021/05/29 09:17:08;;;;;;;;;;;;;;;27.41;24.78;100308.56;5363880;26;33618;-88
2021/05/29 09:19:55;;;;;;;;;;;;;;;27.17;25.46;100309.81;5364353;26;33714;-88
2021/05/29 09:22:43;;;;;;;;;;;;;;;27.39;25.43;100310.53;5366036;26;33248;-88
2021/05/29 09:25:12;;;;;;;;;;;;;;;28.11;23.74;100309.09;5335294;26;34017;-89
2021/05/29 09:27:50;;;;;;;;;;;;;;;26.67;25.58;100302.72;5345641;26;32993;-89
2021/05/29 09:30:33;;;;;;;;;;;;;;;27.86;24.10;100313.25;5345492;26;32120;-88
2021/05/29 09:33:18;;;;;;;;;;;;;;;27.99;23.87;100313.75;5363793;26;32853;-88
2021/05/29 09:36:09;;;;;;;;;;;;;;;27.95;23.64;100307.03;5345212;26;34007;-88
2021/05/29 09:38:42;;;;;;;;;;;;;;;27.79;24.01;100318.34;5345230;26;33082;-89
2021/05/29 09:41:25;;;;;;;;;;;;;;;27.72;24.29;100311.91;5363670;26;33918;-88
2021/05/29 09:44:06;;;;;;;;;;;;;;;27.98;23.16;100313.91;5363987;26;33657;-89
2021/05/29 09:46:53;;;;;;;;;;;;;;;27.29;24.01;100315.88;5345732;26;33030;-88
2021/05/29 09:49:27;;;;;;;;;;;;;;;27.71;23.25;100320.03;5345390;26;33012;-88
2021/05/29 09:51:54;;;;;;;;;;;;;;;27.94;23.15;100305.31;5364350;26;33863;-88
2021/05/29 09:54:24;;;;;;;;;;;;;;;27.66;24.13;100309.78;5326906;26;33235;-89
2021/05/29 09:57:00;;;;;;;;;;;;;;;27.92;23.88;100311.81;5345567;26;32834;-88
2021/05/29 09:59:29;;;;;;;;;;;;;;;27.61;24.46;100314.72;5363467;26;35019;-88
2021/05/29 10:01:58;;;;;;;;;;;;;;;28.10;24.24;100310.09;5345559;26;32360;-88
2021/05/29 10:04:27;;;;;;;;;;;;;;;27.54;24.54;100311.78;5327677;26;34989;-89
2021/05/29 10:06:55;;;;;;;;;;;;;;;28.16;23.39;100311.31;5345799;26;33279;-89
2021/05/29 10:09:24;;;;;;;;;;;;;;;27.47;23.21;100310.69;5327320;26;33912;-88
2021/05/29 10:11:52;;;;;;;;;;;;;;;28.15;22.50;100307.81;5345850;26;32136;-88
2021/05/29 10:14:20;;;;;;;;;;;;;;;28.06;22.22;100302.50;5364233;26;34006;-89
2021/05/29 10:16:48;;;;;;;;;;;;;;;28.68;21.64;100307.25;5364213;26;32795;-88
2021/05/29 10:19:21;;;;;;;;;;;;;;;28.53;21.58;100296.19;5345948;26;32818;-88
2021/05/29 10:21:50;;;;;;;;;;;;;;;28.42;20.91;100294.56;5327540;26;32281;-88
2021/05/29 10:24:18;;;;;;;;;;;;;;;27.94;21.97;100297.28;5332927;26;34283;-89
2021/05/29 10:26:45;;;;;;;;;;;;;;;28.33;21.91;100288.25;5351625;26;32827;-89
2021/05/29 10:29:13;;;;;;;;;;;;;;;28.39;22.21;100293.03;5351357;26;32907;-89
2021/05/29 10:31:41;;;;;;;;;;;;;;;28.74;21.31;100296.78;5366659;26;33255;-89
2021/05/29 10:34:09;;;;;;;;;;;;;;;29.24;21.07;100294.56;5345985;26;34684;-89
2021/05/29 10:36:40;;;;;;;;;;;;;;;27.81;22.91;100294.09;5347375;26;33791;-89
2021/05/29 10:39:31;;;;;;;;;;;;;;;27.99;23.18;100299.53;5348708;26;33981;-88
2021/05/29 10:42:00;;;;;;;;;;;;;;;28.88;22.16;100284.69;5339001;26;33283;-88
2021/05/29 10:44:32;;;;;;;;;;;;;;;29.11;21.96;100294.94;5363787;26;34871;-89
2021/05/29 10:47:04;;;;;;;;;;;;;;;29.24;21.48;100291.87;5345159;26;32961;-89
2021/05/29 10:49:47;;;;;;;;;;;;;;;29.35;21.18;100293.50;5345002;26;32734;-89
2021/05/29 10:52:34;;;;;;;;;;;;;;;28.65;22.07;100293.19;5344821;26;32172;-89
2021/05/29 10:55:07;;;;;;;;;;;;;;;29.06;21.29;100283.81;5363895;26;34034;-89
2021/05/29 10:58:06;;;;;;;;;;;;;;;28.60;21.87;100290.06;5344880;26;33098;-89
2021/05/29 11:00:33;;;;;;;;;;;;;;;27.40;22.45;100288.16;5336159;26;34000;-89
2021/05/29 11:03:18;;;;;;;;;;;;;;;27.47;23.06;100286.59;5363815;26;33792;-89
2021/05/29 11:05:49;;;;;;;;;;;;;;;25.88;24.50;100298.94;5326806;26;33028;-89
2021/05/29 11:08:36;;;;;;;;;;;;;;;27.26;22.75;100295.59;5363486;26;33142;-89
2021/05/29 11:11:24;;;;;;;;;;;;;;;27.58;22.02;100280.25;5364916;26;34124;-88
2021/05/29 11:14:04;;;;;;;;;;;;;;;28.06;22.03;100291.78;5365202;26;32888;-87
2021/05/29 11:16:52;;;;;;;;;;;;;;;27.25;23.20;100285.03;5363472;26;34331;-88
2021/05/29 11:19:23;;;;;;;;;;;;;;;26.37;23.45;100282.28;5366608;26;33435;-88
2021/05/29 11:21:57;;;;;;;;;;;;;;;27.51;22.46;100285.31;5351482;26;33015;-89
2021/05/29 11:24:28;;;;;;;;;;;;;;;27.94;21.92;100275.88;5366548;26;32448;-88
2021/05/29 11:26:56;;;;;;;;;;;;;;;28.24;20.91;100273.94;5364293;26;33717;-88
2021/05/29 11:29:23;;;;;;;;;;;;;;;28.64;20.35;100262.00;5345100;26;34031;-88
2021/05/29 11:31:51;;;;;;;;;;;;;;;28.63;20.93;100273.69;5326627;26;32789;-88
2021/05/29 11:34:20;;;;;;;;;;;;;;;28.81;20.44;100264.81;5363802;26;32142;-88
2021/05/29 11:36:47;;;;;;;;;;;;;;;29.24;19.92;100270.41;5363573;26;34024;-88
2021/05/29 11:39:20;;;;;;;;;;;;;;;29.56;19.42;100264.44;5313077;26;940344;-88
2021/05/29 11:41:49;;;;;;;;;;;;;;;29.73;19.48;100264.50;5327207;26;34345;-90
2021/05/29 11:44:18;;;;;;;;;;;;;;;29.08;20.45;100266.59;5363336;26;33249;-89
2021/05/29 11:46:45;;;;;;;;;;;;;;;29.50;19.75;100270.44;5363777;26;33408;-89
2021/05/29 11:49:14;;;;;;;;;;;;;;;30.01;19.09;100257.16;5326724;26;32967;-88
2021/05/29 11:51:42;;;;;;;;;;;;;;;30.22;19.11;100255.88;5345157;26;33130;-88
2021/05/29 11:54:10;;;;;;;;;;;;;;;30.63;18.73;100256.84;5363457;26;33967;-89
2021/05/29 11:56:40;;;;;;;;;;;;;;;28.55;19.70;100245.97;5365385;26;33975;-88
2021/05/29 11:59:09;;;;;;;;;;;;;;;29.30;19.28;100242.97;5363356;26;34829;-88
2021/05/29 12:01:37;;;;;;;;;;;;;;;29.80;18.80;100252.97;5363926;26;33972;-89
2021/05/29 12:04:06;;;;;;;;;;;;;;;30.01;18.53;100253.59;5344438;26;33026;-89
2021/05/29 12:06:43;;;;;;;;;;;;;;;29.93;18.53;100247.22;5344674;26;32926;-89
2021/05/29 12:09:13;;;;;;;;;;;;;;;30.49;17.74;100252.12;5344752;26;33125;-89
2021/05/29 12:12:01;;;;;;;;;;;;;;;30.36;18.37;100243.66;5344750;26;34337;-88
2021/05/29 12:14:49;;;;;;;;;;;;;;;30.15;17.82;100253.00;5364809;26;33158;-88
2021/05/29 12:17:18;;;;;;;;;;;;;;;29.49;18.43;100236.56;5344844;26;32946;-89
2021/05/29 12:19:49;;;;;;;;;;;;;;;30.15;18.09;100245.78;5363247;26;34102;-89
2021/05/29 12:22:21;;;;;;;;;;;;;;;30.50;17.31;100245.72;5344671;26;32843;-89
2021/05/29 12:24:58;;;;;;;;;;;;;;;30.34;17.74;100251.03;5344637;26;32103;-90
2021/05/29 12:27:28;;;;;;;;;;;;;;;30.37;17.64;100243.50;5363149;26;34294;-89
2021/05/29 12:30:07;;;;;;;;;;;;;;;30.80;17.60;100238.03;5363186;26;33886;-90
2021/05/29 12:32:45;;;;;;;;;;;;;;;29.70;18.91;100249.56;5344677;26;34190;-89
2021/05/29 12:35:32;;;;;;;;;;;;;;;29.09;18.63;100225.34;5345595;26;32002;-89
2021/05/29 12:38:16;;;;;;;;;;;;;;;29.38;18.45;100239.50;5344676;26;33151;-89
2021/05/29 12:40:53;;;;;;;;;;;;;;;29.67;17.88;100232.97;5344573;26;33061;-88
2021/05/29 12:43:21;;;;;;;;;;;;;;;30.39;16.78;100237.94;5326344;26;32352;-89
2021/05/29 12:45:48;;;;;;;;;;;;;;;31.11;16.22;100242.75;5344759;26;33193;-90
2021/05/29 12:48:16;;;;;;;;;;;;;;;30.34;16.81;100229.53;5325858;26;32942;-88
2021/05/29 12:51:00;;;;;;;;;;;;;;;29.93;17.25;100230.22;5326382;26;33033;-89
2021/05/29 12:53:29;;;;;;;;;;;;;;;30.48;17.07;100231.62;5328880;26;32797;-89
2021/05/29 12:56:16;;;;;;;;;;;;;;;30.67;16.58;100225.06;5363475;26;32905;-89
2021/05/29 12:59:00;;;;;;;;;;;;;;;30.72;16.90;100225.41;5345169;26;33882;-89
2021/05/29 13:09:48;;;;;;;;;;;;;;;31.09;16.25;100212.50;5352297;26;33584;-88